Port Antonio, Jamaica
Current Conditions -  °F | °C
As of 5:00 AM on Tuesday 21 Oct 2014 (Local Time) from MKJP Reporting Station
Few Clouds Few Clouds  
Wind Chill: 82°   Ceiling: Unl
Heat Index: 87°   Visibility: 6mi
Dew Point: 72°   Wind: 7mph
Humidity: 70%   Direction: 10°N
Pressure: 29.85"   Gusts: NA
Location:  18.16°N, 76.38°W
Report Text: MKJP 211000Z 01006KT 9999 FEW024 28/22 Q1011
Loading
Personal Weather Stations






























Interactive Weather Map
Tropical Storm Tracking
New forecast layout! Learn more

10-Day Weather Forecast

Advertisements
Track Severe Weather on mobile